sensor_id;sensor_type;location;lat;lon;timestamp;temperature;humidity
7934;DHT22;4012;48.896;9.192;2023-04-24T00:02:18;12.20;99.90
7934;DHT22;4012;48.896;9.192;2023-04-24T00:04:44;12.20;99.90
7934;DHT22;4012;48.896;9.192;2023-04-24T00:07:12;12.20;99.90
7934;DHT22;4012;48.896;9.192;2023-04-24T00:09:45;12.30;99.90
7934;DHT22;4012;48.896;9.192;2023-04-24T00:12:11;12.30;99.90
7934;DHT22;4012;48.896;9.192;2023-04-24T00:14:36;12.40;99.90
7934;DHT22;4012;48.896;9.192;2023-04-24T00:17:02;12.40;99.90
7934;DHT22;4012;48.896;9.192;2023-04-24T00:19:28;12.40;99.90
7934;DHT22;4012;48.896;9.192;2023-04-24T00:21:54;12.40;99.90
7934;DHT22;4012;48.896;9.192;2023-04-24T00:24:20;12.40;99.90
7934;DHT22;4012;48.896;9.192;2023-04-24T00:26:46;12.40;99.90
7934;DHT22;4012;48.896;9.192;2023-04-24T00:29:11;12.50;99.90
7934;DHT22;4012;48.896;9.192;2023-04-24T00:31:37;12.50;99.90
7934;DHT22;4012;48.896;9.192;2023-04-24T00:34:03;12.50;99.90
7934;DHT22;4012;48.896;9.192;2023-04-24T00:36:30;12.50;99.90
7934;DHT22;4012;48.896;9.192;2023-04-24T00:38:56;12.50;99.90
7934;DHT22;4012;48.896;9.192;2023-04-24T00:41:23;12.50;99.90
7934;DHT22;4012;48.896;9.192;2023-04-24T00:43:49;12.50;99.90
7934;DHT22;4012;48.896;9.192;2023-04-24T00:46:15;12.60;99.90
7934;DHT22;4012;48.896;9.192;2023-04-24T00:48:41;12.50;99.90
7934;DHT22;4012;48.896;9.192;2023-04-24T00:51:08;12.60;99.90
7934;DHT22;4012;48.896;9.192;2023-04-24T00:53:33;12.50;99.90
7934;DHT22;4012;48.896;9.192;2023-04-24T00:56:00;12.50;99.90
7934;DHT22;4012;48.896;9.192;2023-04-24T00:58:25;12.50;99.90
7934;DHT22;4012;48.896;9.192;2023-04-24T01:00:53;12.50;99.90
7934;DHT22;4012;48.896;9.192;2023-04-24T01:03:24;12.50;99.90
7934;DHT22;4012;48.896;9.192;2023-04-24T01:05:52;12.50;99.90
7934;DHT22;4012;48.896;9.192;2023-04-24T01:08:18;12.50;99.90
7934;DHT22;4012;48.896;9.192;2023-04-24T01:10:44;12.50;99.90
7934;DHT22;4012;48.896;9.192;2023-04-24T01:13:11;12.40;99.90
7934;DHT22;4012;48.896;9.192;2023-04-24T01:15:37;12.50;99.90
7934;DHT22;4012;48.896;9.192;2023-04-24T01:18:03;12.50;99.90
7934;DHT22;4012;48.896;9.192;2023-04-24T01:20:29;12.60;99.90
7934;DHT22;4012;48.896;9.192;2023-04-24T01:22:55;12.60;99.90
7934;DHT22;4012;48.896;9.192;2023-04-24T01:25:25;12.60;99.90
7934;DHT22;4012;48.896;9.192;2023-04-24T01:27:52;12.60;99.90
7934;DHT22;4012;48.896;9.192;2023-04-24T01:30:18;12.60;99.90
7934;DHT22;4012;48.896;9.192;2023-04-24T01:32:44;12.60;99.90
7934;DHT22;4012;48.896;9.192;2023-04-24T01:35:10;12.60;99.90
7934;DHT22;4012;48.896;9.192;2023-04-24T01:37:36;12.50;99.90
7934;DHT22;4012;48.896;9.192;2023-04-24T01:40:06;12.50;99.90
7934;DHT22;4012;48.896;9.192;2023-04-24T01:42:32;12.50;99.90
7934;DHT22;4012;48.896;9.192;2023-04-24T01:44:59;12.40;99.90
7934;DHT22;4012;48.896;9.192;2023-04-24T01:47:25;12.30;99.90
7934;DHT22;4012;48.896;9.192;2023-04-24T01:49:51;12.30;99.90
7934;DHT22;4012;48.896;9.192;2023-04-24T01:52:17;12.30;99.90
7934;DHT22;4012;48.896;9.192;2023-04-24T01:54:44;12.20;99.90
7934;DHT22;4012;48.896;9.192;2023-04-24T01:57:10;12.30;99.90
7934;DHT22;4012;48.896;9.192;2023-04-24T01:59:36;12.30;99.90
7934;DHT22;4012;48.896;9.192;2023-04-24T02:02:02;12.30;99.90
7934;DHT22;4012;48.896;9.192;2023-04-24T02:04:28;12.30;99.90
7934;DHT22;4012;48.896;9.192;2023-04-24T02:06:54;12.20;99.90
7934;DHT22;4012;48.896;9.192;2023-04-24T02:09:20;12.20;99.90
7934;DHT22;4012;48.896;9.192;2023-04-24T02:11:45;12.20;99.90
7934;DHT22;4012;48.896;9.192;2023-04-24T02:14:11;12.10;99.90
7934;DHT22;4012;48.896;9.192;2023-04-24T02:16:37;12.10;99.90
7934;DHT22;4012;48.896;9.192;2023-04-24T02:19:03;12.10;99.90
7934;DHT22;4012;48.896;9.192;2023-04-24T02:21:29;12.20;99.90
7934;DHT22;4012;48.896;9.192;2023-04-24T02:23:56;12.20;99.90
7934;DHT22;4012;48.896;9.192;2023-04-24T02:26:21;12.20;99.90
7934;DHT22;4012;48.896;9.192;2023-04-24T02:28:47;12.20;99.90
7934;DHT22;4012;48.896;9.192;2023-04-24T02:31:13;12.20;99.90
7934;DHT22;4012;48.896;9.192;2023-04-24T02:33:38;12.10;99.90
7934;DHT22;4012;48.896;9.192;2023-04-24T02:36:04;12.20;99.90
7934;DHT22;4012;48.896;9.192;2023-04-24T02:38:30;12.20;99.90
7934;DHT22;4012;48.896;9.192;2023-04-24T02:40:55;12.30;99.90
7934;DHT22;4012;48.896;9.192;2023-04-24T02:43:21;12.30;99.90
7934;DHT22;4012;48.896;9.192;2023-04-24T02:45:46;12.30;99.90
7934;DHT22;4012;48.896;9.192;2023-04-24T02:48:12;12.20;99.90
7934;DHT22;4012;48.896;9.192;2023-04-24T02:50:38;12.20;99.90
7934;DHT22;4012;48.896;9.192;2023-04-24T02:53:03;12.10;99.90
7934;DHT22;4012;48.896;9.192;2023-04-24T02:55:29;12.00;99.90
7934;DHT22;4012;48.896;9.192;2023-04-24T02:57:55;12.00;99.90
7934;DHT22;4012;48.896;9.192;2023-04-24T03:00:21;11.90;99.90
7934;DHT22;4012;48.896;9.192;2023-04-24T03:02:46;11.90;99.90
7934;DHT22;4012;48.896;9.192;2023-04-24T03:05:12;11.80;99.90
7934;DHT22;4012;48.896;9.192;2023-04-24T03:07:38;11.80;99.90
7934;DHT22;4012;48.896;9.192;2023-04-24T03:10:04;11.80;99.90
7934;DHT22;4012;48.896;9.192;2023-04-24T03:12:31;11.80;99.90
7934;DHT22;4012;48.896;9.192;2023-04-24T03:14:56;11.80;99.90
7934;DHT22;4012;48.896;9.192;2023-04-24T03:17:22;11.80;99.90
7934;DHT22;4012;48.896;9.192;2023-04-24T03:19:48;11.80;99.90
7934;DHT22;4012;48.896;9.192;2023-04-24T03:22:14;11.80;99.90
7934;DHT22;4012;48.896;9.192;2023-04-24T03:24:39;11.70;99.90
7934;DHT22;4012;48.896;9.192;2023-04-24T03:27:05;11.70;99.90
7934;DHT22;4012;48.896;9.192;2023-04-24T03:29:31;11.70;99.90
7934;DHT22;4012;48.896;9.192;2023-04-24T03:31:57;11.70;99.90
7934;DHT22;4012;48.896;9.192;2023-04-24T03:34:28;11.60;99.90
7934;DHT22;4012;48.896;9.192;2023-04-24T03:36:54;11.60;99.90
7934;DHT22;4012;48.896;9.192;2023-04-24T03:39:19;11.50;99.90
7934;DHT22;4012;48.896;9.192;2023-04-24T03:41:45;11.50;99.90
7934;DHT22;4012;48.896;9.192;2023-04-24T03:44:11;11.50;99.90
7934;DHT22;4012;48.896;9.192;2023-04-24T03:46:36;11.40;99.90
7934;DHT22;4012;48.896;9.192;2023-04-24T03:49:02;11.40;99.90
7934;DHT22;4012;48.896;9.192;2023-04-24T03:51:27;11.40;99.90
7934;DHT22;4012;48.896;9.192;2023-04-24T03:53:55;11.30;99.90
7934;DHT22;4012;48.896;9.192;2023-04-24T03:56:21;11.30;99.90
7934;DHT22;4012;48.896;9.192;2023-04-24T03:58:46;11.30;99.90
7934;DHT22;4012;48.896;9.192;2023-04-24T04:01:12;11.30;99.90
7934;DHT22;4012;48.896;9.192;2023-04-24T04:03:38;11.30;99.90
7934;DHT22;4012;48.896;9.192;2023-04-24T04:06:04;11.30;99.90
7934;DHT22;4012;48.896;9.192;2023-04-24T04:08:30;11.30;99.90
7934;DHT22;4012;48.896;9.192;2023-04-24T04:10:55;11.40;99.90
7934;DHT22;4012;48.896;9.192;2023-04-24T04:13:21;11.40;99.90
7934;DHT22;4012;48.896;9.192;2023-04-24T04:15:47;11.50;99.90
7934;DHT22;4012;48.896;9.192;2023-04-24T04:18:12;11.50;99.90
7934;DHT22;4012;48.896;9.192;2023-04-24T04:20:38;11.60;99.90
7934;DHT22;4012;48.896;9.192;2023-04-24T04:23:03;11.60;99.90
7934;DHT22;4012;48.896;9.192;2023-04-24T04:25:29;11.30;99.90
7934;DHT22;4012;48.896;9.192;2023-04-24T04:27:54;11.10;99.90
7934;DHT22;4012;48.896;9.192;2023-04-24T04:30:20;10.90;99.90
7934;DHT22;4012;48.896;9.192;2023-04-24T04:32:46;10.90;99.90
7934;DHT22;4012;48.896;9.192;2023-04-24T04:35:12;10.90;99.90
7934;DHT22;4012;48.896;9.192;2023-04-24T04:37:38;10.80;99.90
7934;DHT22;4012;48.896;9.192;2023-04-24T04:40:04;10.70;99.90
7934;DHT22;4012;48.896;9.192;2023-04-24T04:42:34;10.70;99.90
7934;DHT22;4012;48.896;9.192;2023-04-24T04:45:00;10.70;99.90
7934;DHT22;4012;48.896;9.192;2023-04-24T04:47:26;10.70;99.90
7934;DHT22;4012;48.896;9.192;2023-04-24T04:49:54;10.80;99.90
7934;DHT22;4012;48.896;9.192;2023-04-24T04:52:20;10.80;99.90
7934;DHT22;4012;48.896;9.192;2023-04-24T04:54:45;10.70;99.90
7934;DHT22;4012;48.896;9.192;2023-04-24T04:57:11;10.60;99.90
7934;DHT22;4012;48.896;9.192;2023-04-24T04:59:37;10.60;99.90
7934;DHT22;4012;48.896;9.192;2023-04-24T05:02:03;10.60;99.90
7934;DHT22;4012;48.896;9.192;2023-04-24T05:04:29;10.60;99.90
7934;DHT22;4012;48.896;9.192;2023-04-24T05:06:55;10.60;99.90
7934;DHT22;4012;48.896;9.192;2023-04-24T05:09:21;10.60;99.90
7934;DHT22;4012;48.896;9.192;2023-04-24T05:11:47;10.60;99.90
7934;DHT22;4012;48.896;9.192;2023-04-24T05:14:13;10.60;99.90
7934;DHT22;4012;48.896;9.192;2023-04-24T05:16:39;10.60;99.90
7934;DHT22;4012;48.896;9.192;2023-04-24T05:19:05;10.50;99.90
7934;DHT22;4012;48.896;9.192;2023-04-24T05:21:31;10.60;99.90
7934;DHT22;4012;48.896;9.192;2023-04-24T05:23:56;10.50;99.90
7934;DHT22;4012;48.896;9.192;2023-04-24T05:26:22;10.50;99.90
7934;DHT22;4012;48.896;9.192;2023-04-24T05:28:48;10.50;99.90
7934;DHT22;4012;48.896;9.192;2023-04-24T05:31:13;10.60;99.90
7934;DHT22;4012;48.896;9.192;2023-04-24T05:33:39;10.60;99.90
7934;DHT22;4012;48.896;9.192;2023-04-24T05:36:06;10.60;99.90
7934;DHT22;4012;48.896;9.192;2023-04-24T05:38:32;10.60;99.90
7934;DHT22;4012;48.896;9.192;2023-04-24T05:40:57;10.80;99.90
7934;DHT22;4012;48.896;9.192;2023-04-24T05:43:23;10.90;99.90
7934;DHT22;4012;48.896;9.192;2023-04-24T05:45:48;10.80;99.90
7934;DHT22;4012;48.896;9.192;2023-04-24T05:48:14;10.70;99.90
7934;DHT22;4012;48.896;9.192;2023-04-24T05:50:40;10.60;99.90
7934;DHT22;4012;48.896;9.192;2023-04-24T05:53:05;10.70;99.90
7934;DHT22;4012;48.896;9.192;2023-04-24T05:55:32;10.60;99.90
7934;DHT22;4012;48.896;9.192;2023-04-24T05:57:58;10.60;99.90
7934;DHT22;4012;48.896;9.192;2023-04-24T06:00:25;10.70;99.90
7934;DHT22;4012;48.896;9.192;2023-04-24T06:02:50;10.90;99.90
7934;DHT22;4012;48.896;9.192;2023-04-24T06:05:18;11.20;99.90
7934;DHT22;4012;48.896;9.192;2023-04-24T06:07:44;11.20;99.90
7934;DHT22;4012;48.896;9.192;2023-04-24T06:10:10;11.20;99.90
7934;DHT22;4012;48.896;9.192;2023-04-24T06:12:36;11.20;99.90
7934;DHT22;4012;48.896;9.192;2023-04-24T06:15:02;11.30;99.90
7934;DHT22;4012;48.896;9.192;2023-04-24T06:17:28;11.40;99.90
7934;DHT22;4012;48.896;9.192;2023-04-24T06:19:53;11.30;99.90
7934;DHT22;4012;48.896;9.192;2023-04-24T06:22:19;11.30;99.90
7934;DHT22;4012;48.896;9.192;2023-04-24T06:24:44;11.40;99.90
7934;DHT22;4012;48.896;9.192;2023-04-24T06:27:10;11.50;99.90
7934;DHT22;4012;48.896;9.192;2023-04-24T06:29:36;11.80;99.90
7934;DHT22;4012;48.896;9.192;2023-04-24T06:32:02;12.20;99.90
7934;DHT22;4012;48.896;9.192;2023-04-24T06:34:27;12.50;99.90
7934;DHT22;4012;48.896;9.192;2023-04-24T06:36:54;12.60;99.90
7934;DHT22;4012;48.896;9.192;2023-04-24T06:39:20;12.50;99.90
7934;DHT22;4012;48.896;9.192;2023-04-24T06:41:46;12.50;99.90
7934;DHT22;4012;48.896;9.192;2023-04-24T06:44:11;12.40;99.90
7934;DHT22;4012;48.896;9.192;2023-04-24T06:46:37;12.00;99.90
7934;DHT22;4012;48.896;9.192;2023-04-24T06:49:03;12.20;99.90
7934;DHT22;4012;48.896;9.192;2023-04-24T06:51:28;12.00;99.90
7934;DHT22;4012;48.896;9.192;2023-04-24T06:53:54;11.90;99.90
7934;DHT22;4012;48.896;9.192;2023-04-24T06:56:22;12.10;99.90
7934;DHT22;4012;48.896;9.192;2023-04-24T06:58:47;12.50;99.90
7934;DHT22;4012;48.896;9.192;2023-04-24T07:01:13;13.80;99.90
7934;DHT22;4012;48.896;9.192;2023-04-24T07:03:39;14.90;99.90
7934;DHT22;4012;48.896;9.192;2023-04-24T07:06:05;14.00;99.90
7934;DHT22;4012;48.896;9.192;2023-04-24T07:08:31;15.70;99.90
7934;DHT22;4012;48.896;9.192;2023-04-24T07:10:58;17.00;99.90
7934;DHT22;4012;48.896;9.192;2023-04-24T07:13:24;19.20;99.90
7934;DHT22;4012;48.896;9.192;2023-04-24T07:15:50;18.60;99.90
7934;DHT22;4012;48.896;9.192;2023-04-24T07:18:17;17.00;99.90
7934;DHT22;4012;48.896;9.192;2023-04-24T07:20:43;16.30;99.90
7934;DHT22;4012;48.896;9.192;2023-04-24T07:23:09;14.90;99.90
7934;DHT22;4012;48.896;9.192;2023-04-24T07:25:35;14.00;99.90
7934;DHT22;4012;48.896;9.192;2023-04-24T07:28:00;13.40;99.90
7934;DHT22;4012;48.896;9.192;2023-04-24T07:30:26;13.20;99.90
7934;DHT22;4012;48.896;9.192;2023-04-24T07:32:54;12.80;99.90
7934;DHT22;4012;48.896;9.192;2023-04-24T07:35:20;13.40;99.90
7934;DHT22;4012;48.896;9.192;2023-04-24T07:37:45;15.20;99.90
7934;DHT22;4012;48.896;9.192;2023-04-24T07:40:13;17.00;99.90
7934;DHT22;4012;48.896;9.192;2023-04-24T07:42:39;16.60;99.90
7934;DHT22;4012;48.896;9.192;2023-04-24T07:45:05;14.40;99.90
7934;DHT22;4012;48.896;9.192;2023-04-24T07:47:31;13.60;99.90
7934;DHT22;4012;48.896;9.192;2023-04-24T07:49:57;13.70;99.90
7934;DHT22;4012;48.896;9.192;2023-04-24T07:52:23;13.80;99.90
7934;DHT22;4012;48.896;9.192;2023-04-24T07:54:49;13.50;99.90
7934;DHT22;4012;48.896;9.192;2023-04-24T07:57:15;14.00;99.90
7934;DHT22;4012;48.896;9.192;2023-04-24T07:59:41;14.60;99.90
7934;DHT22;4012;48.896;9.192;2023-04-24T08:02:07;15.00;99.90
7934;DHT22;4012;48.896;9.192;2023-04-24T08:04:33;14.00;99.90
7934;DHT22;4012;48.896;9.192;2023-04-24T08:06:59;13.90;99.90
7934;DHT22;4012;48.896;9.192;2023-04-24T08:09:25;13.90;99.90
7934;DHT22;4012;48.896;9.192;2023-04-24T08:11:50;13.70;99.90
7934;DHT22;4012;48.896;9.192;2023-04-24T08:14:16;13.30;99.90
7934;DHT22;4012;48.896;9.192;2023-04-24T08:16:42;13.20;99.90
7934;DHT22;4012;48.896;9.192;2023-04-24T08:19:08;14.10;99.90
7934;DHT22;4012;48.896;9.192;2023-04-24T08:21:33;15.00;99.90
7934;DHT22;4012;48.896;9.192;2023-04-24T08:23:59;14.90;99.90
7934;DHT22;4012;48.896;9.192;2023-04-24T08:26:24;14.50;99.90
7934;DHT22;4012;48.896;9.192;2023-04-24T08:28:50;15.00;99.90
7934;DHT22;4012;48.896;9.192;2023-04-24T08:31:16;16.30;99.90
7934;DHT22;4012;48.896;9.192;2023-04-24T08:33:41;16.90;99.90
7934;DHT22;4012;48.896;9.192;2023-04-24T08:36:10;15.90;99.90
7934;DHT22;4012;48.896;9.192;2023-04-24T08:38:36;17.40;99.90
7934;DHT22;4012;48.896;9.192;2023-04-24T08:41:02;17.20;99.90
7934;DHT22;4012;48.896;9.192;2023-04-24T08:43:28;16.20;99.90
7934;DHT22;4012;48.896;9.192;2023-04-24T08:45:56;17.50;99.90
7934;DHT22;4012;48.896;9.192;2023-04-24T08:48:25;18.00;99.90
7934;DHT22;4012;48.896;9.192;2023-04-24T08:50:51;18.80;99.90
7934;DHT22;4012;48.896;9.192;2023-04-24T08:53:18;20.20;99.90
7934;DHT22;4012;48.896;9.192;2023-04-24T08:55:47;18.00;99.90
7934;DHT22;4012;48.896;9.192;2023-04-24T08:58:14;18.40;99.90
7934;DHT22;4012;48.896;9.192;2023-04-24T09:00:40;16.50;99.90
7934;DHT22;4012;48.896;9.192;2023-04-24T09:03:15;17.80;99.90
7934;DHT22;4012;48.896;9.192;2023-04-24T09:05:46;17.80;99.90
7934;DHT22;4012;48.896;9.192;2023-04-24T09:08:13;16.20;99.90
7934;DHT22;4012;48.896;9.192;2023-04-24T09:10:40;17.30;99.90
7934;DHT22;4012;48.896;9.192;2023-04-24T09:13:06;18.20;99.90
7934;DHT22;4012;48.896;9.192;2023-04-24T09:15:34;19.30;99.90
7934;DHT22;4012;48.896;9.192;2023-04-24T09:18:00;20.10;99.90
7934;DHT22;4012;48.896;9.192;2023-04-24T09:20:26;18.00;99.90
7934;DHT22;4012;48.896;9.192;2023-04-24T09:22:57;17.00;99.90
7934;DHT22;4012;48.896;9.192;2023-04-24T09:25:25;15.60;99.90
7934;DHT22;4012;48.896;9.192;2023-04-24T09:28:00;14.30;99.90
7934;DHT22;4012;48.896;9.192;2023-04-24T09:30:27;14.40;99.90
7934;DHT22;4012;48.896;9.192;2023-04-24T09:33:13;14.10;99.90
7934;DHT22;4012;48.896;9.192;2023-04-24T09:35:42;13.90;99.90
7934;DHT22;4012;48.896;9.192;2023-04-24T09:38:11;14.50;99.90
7934;DHT22;4012;48.896;9.192;2023-04-24T09:40:36;15.30;99.90
7934;DHT22;4012;48.896;9.192;2023-04-24T09:43:02;15.70;99.90
7934;DHT22;4012;48.896;9.192;2023-04-24T09:45:38;17.60;99.90
7934;DHT22;4012;48.896;9.192;2023-04-24T09:48:05;18.10;99.90
7934;DHT22;4012;48.896;9.192;2023-04-24T09:50:32;18.00;99.90
7934;DHT22;4012;48.896;9.192;2023-04-24T09:53:01;15.60;99.90
7934;DHT22;4012;48.896;9.192;2023-04-24T09:55:26;15.00;99.90
7934;DHT22;4012;48.896;9.192;2023-04-24T09:57:56;14.80;99.90
7934;DHT22;4012;48.896;9.192;2023-04-24T10:00:31;14.40;99.90
7934;DHT22;4012;48.896;9.192;2023-04-24T10:03:04;14.20;99.90
7934;DHT22;4012;48.896;9.192;2023-04-24T10:05:33;14.10;99.90
7934;DHT22;4012;48.896;9.192;2023-04-24T10:08:11;14.60;99.90
7934;DHT22;4012;48.896;9.192;2023-04-24T10:10:44;15.20;99.90
7934;DHT22;4012;48.896;9.192;2023-04-24T10:13:11;15.50;99.90
7934;DHT22;4012;48.896;9.192;2023-04-24T10:15:38;15.30;99.90
7934;DHT22;4012;48.896;9.192;2023-04-24T10:18:05;14.90;99.90
7934;DHT22;4012;48.896;9.192;2023-04-24T10:20:32;14.70;99.90
7934;DHT22;4012;48.896;9.192;2023-04-24T10:22:59;14.40;99.90
7934;DHT22;4012;48.896;9.192;2023-04-24T10:25:27;14.30;99.90
7934;DHT22;4012;48.896;9.192;2023-04-24T10:27:53;13.90;99.90
7934;DHT22;4012;48.896;9.192;2023-04-24T10:30:23;13.60;99.90
7934;DHT22;4012;48.896;9.192;2023-04-24T10:32:48;13.60;99.90
7934;DHT22;4012;48.896;9.192;2023-04-24T10:35:15;13.50;99.90
7934;DHT22;4012;48.896;9.192;2023-04-24T10:37:46;13.70;99.90
7934;DHT22;4012;48.896;9.192;2023-04-24T10:40:18;13.40;99.90
7934;DHT22;4012;48.896;9.192;2023-04-24T10:42:47;13.10;99.90
7934;DHT22;4012;48.896;9.192;2023-04-24T10:45:23;12.80;99.90
7934;DHT22;4012;48.896;9.192;2023-04-24T10:50:29;12.70;99.90
7934;DHT22;4012;48.896;9.192;2023-04-24T10:53:06;13.00;99.90
7934;DHT22;4012;48.896;9.192;2023-04-24T10:58:11;13.30;99.90
7934;DHT22;4012;48.896;9.192;2023-04-24T11:00:39;13.50;99.90
7934;DHT22;4012;48.896;9.192;2023-04-24T11:03:27;13.60;99.90
7934;DHT22;4012;48.896;9.192;2023-04-24T11:11:03;14.70;99.90
7934;DHT22;4012;48.896;9.192;2023-04-24T11:19:06;14.10;99.90
7934;DHT22;4012;48.896;9.192;2023-04-24T11:26:53;14.00;99.90
7934;DHT22;4012;48.896;9.192;2023-04-24T11:29:20;14.30;99.90
7934;DHT22;4012;48.896;9.192;2023-04-24T11:31:46;14.40;99.90
7934;DHT22;4012;48.896;9.192;2023-04-24T11:34:18;14.70;99.90
7934;DHT22;4012;48.896;9.192;2023-04-24T11:36:47;14.60;99.90
7934;DHT22;4012;48.896;9.192;2023-04-24T11:39:13;14.60;99.90
7934;DHT22;4012;48.896;9.192;2023-04-24T11:41:39;15.10;99.90
7934;DHT22;4012;48.896;9.192;2023-04-24T11:44:09;15.20;99.90
7934;DHT22;4012;48.896;9.192;2023-04-24T11:46:35;15.30;99.90
7934;DHT22;4012;48.896;9.192;2023-04-24T11:49:03;15.30;99.90
7934;DHT22;4012;48.896;9.192;2023-04-24T11:51:28;15.10;99.90
7934;DHT22;4012;48.896;9.192;2023-04-24T11:53:55;15.00;99.90
7934;DHT22;4012;48.896;9.192;2023-04-24T11:56:22;14.70;99.90
7934;DHT22;4012;48.896;9.192;2023-04-24T11:58:48;14.90;99.90
7934;DHT22;4012;48.896;9.192;2023-04-24T12:01:14;14.80;99.90
7934;DHT22;4012;48.896;9.192;2023-04-24T12:03:40;15.00;99.90
7934;DHT22;4012;48.896;9.192;2023-04-24T12:06:10;14.10;99.90
7934;DHT22;4012;48.896;9.192;2023-04-24T12:08:37;14.40;99.90
7934;DHT22;4012;48.896;9.192;2023-04-24T12:11:05;14.70;99.90
7934;DHT22;4012;48.896;9.192;2023-04-24T12:13:32;14.30;99.90
7934;DHT22;4012;48.896;9.192;2023-04-24T12:15:58;14.30;99.90
7934;DHT22;4012;48.896;9.192;2023-04-24T12:18:24;14.50;99.90
7934;DHT22;4012;48.896;9.192;2023-04-24T12:20:53;14.40;99.90
7934;DHT22;4012;48.896;9.192;2023-04-24T12:23:35;14.30;99.90
7934;DHT22;4012;48.896;9.192;2023-04-24T12:26:03;14.20;99.90
7934;DHT22;4012;48.896;9.192;2023-04-24T12:28:37;14.00;99.90
7934;DHT22;4012;48.896;9.192;2023-04-24T12:31:03;13.90;99.90
7934;DHT22;4012;48.896;9.192;2023-04-24T12:33:33;13.80;99.90
7934;DHT22;4012;48.896;9.192;2023-04-24T12:36:00;13.60;99.90
7934;DHT22;4012;48.896;9.192;2023-04-24T12:38:29;13.50;99.90
7934;DHT22;4012;48.896;9.192;2023-04-24T12:41:13;13.40;99.90
7934;DHT22;4012;48.896;9.192;2023-04-24T12:43:53;13.20;99.90
7934;DHT22;4012;48.896;9.192;2023-04-24T12:46:22;13.20;99.90
7934;DHT22;4012;48.896;9.192;2023-04-24T12:48:47;13.20;99.90
7934;DHT22;4012;48.896;9.192;2023-04-24T12:51:13;13.30;99.90
7934;DHT22;4012;48.896;9.192;2023-04-24T12:53:38;13.50;99.90
7934;DHT22;4012;48.896;9.192;2023-04-24T12:56:04;13.80;99.90
7934;DHT22;4012;48.896;9.192;2023-04-24T12:58:30;13.80;99.90
7934;DHT22;4012;48.896;9.192;2023-04-24T13:00:56;13.80;99.90
7934;DHT22;4012;48.896;9.192;2023-04-24T13:03:21;13.60;99.90
7934;DHT22;4012;48.896;9.192;2023-04-24T13:05:47;13.60;99.90
7934;DHT22;4012;48.896;9.192;2023-04-24T13:08:13;13.60;99.90
7934;DHT22;4012;48.896;9.192;2023-04-24T13:10:39;13.80;99.90
7934;DHT22;4012;48.896;9.192;2023-04-24T13:13:05;14.00;99.90
7934;DHT22;4012;48.896;9.192;2023-04-24T13:15:31;14.80;99.90
7934;DHT22;4012;48.896;9.192;2023-04-24T13:17:56;14.70;99.90
7934;DHT22;4012;48.896;9.192;2023-04-24T13:20:22;14.20;99.90
7934;DHT22;4012;48.896;9.192;2023-04-24T13:22:48;14.10;99.90
7934;DHT22;4012;48.896;9.192;2023-04-24T13:25:13;14.10;99.90
7934;DHT22;4012;48.896;9.192;2023-04-24T13:27:42;13.90;99.90
7934;DHT22;4012;48.896;9.192;2023-04-24T13:30:08;14.30;99.90
7934;DHT22;4012;48.896;9.192;2023-04-24T13:32:34;14.30;99.90
7934;DHT22;4012;48.896;9.192;2023-04-24T13:35:00;14.70;99.90
7934;DHT22;4012;48.896;9.192;2023-04-24T13:37:26;15.10;99.90
7934;DHT22;4012;48.896;9.192;2023-04-24T13:39:51;15.20;99.90
7934;DHT22;4012;48.896;9.192;2023-04-24T13:42:17;14.70;99.90
7934;DHT22;4012;48.896;9.192;2023-04-24T13:44:44;15.10;99.90
7934;DHT22;4012;48.896;9.192;2023-04-24T13:47:09;15.20;99.90
7934;DHT22;4012;48.896;9.192;2023-04-24T13:49:35;15.10;99.90
7934;DHT22;4012;48.896;9.192;2023-04-24T13:52:02;14.50;99.90
7934;DHT22;4012;48.896;9.192;2023-04-24T13:54:28;14.80;99.90
7934;DHT22;4012;48.896;9.192;2023-04-24T13:56:55;14.60;99.90
7934;DHT22;4012;48.896;9.192;2023-04-24T13:59:21;14.50;99.90
7934;DHT22;4012;48.896;9.192;2023-04-24T14:01:47;14.30;99.90
7934;DHT22;4012;48.896;9.192;2023-04-24T14:04:13;14.10;99.90
7934;DHT22;4012;48.896;9.192;2023-04-24T14:06:38;14.20;99.90
7934;DHT22;4012;48.896;9.192;2023-04-24T14:09:04;14.60;99.90
7934;DHT22;4012;48.896;9.192;2023-04-24T14:11:29;14.80;99.90
7934;DHT22;4012;48.896;9.192;2023-04-24T14:13:55;14.10;99.90
7934;DHT22;4012;48.896;9.192;2023-04-24T14:16:23;14.40;99.90
7934;DHT22;4012;48.896;9.192;2023-04-24T14:18:50;14.30;99.90
7934;DHT22;4012;48.896;9.192;2023-04-24T14:21:16;14.20;99.90
7934;DHT22;4012;48.896;9.192;2023-04-24T14:23:41;14.50;99.90
7934;DHT22;4012;48.896;9.192;2023-04-24T14:26:07;14.40;99.90
7934;DHT22;4012;48.896;9.192;2023-04-24T14:28:32;14.10;99.90
7934;DHT22;4012;48.896;9.192;2023-04-24T14:30:58;14.50;99.90
7934;DHT22;4012;48.896;9.192;2023-04-24T14:33:24;14.00;99.90
7934;DHT22;4012;48.896;9.192;2023-04-24T14:35:49;14.10;99.90
7934;DHT22;4012;48.896;9.192;2023-04-24T14:38:15;14.50;99.90
7934;DHT22;4012;48.896;9.192;2023-04-24T14:40:40;14.60;99.90
7934;DHT22;4012;48.896;9.192;2023-04-24T14:43:06;14.30;99.90
7934;DHT22;4012;48.896;9.192;2023-04-24T14:45:32;14.10;99.90
7934;DHT22;4012;48.896;9.192;2023-04-24T14:47:58;14.20;99.90
7934;DHT22;4012;48.896;9.192;2023-04-24T14:50:24;14.40;99.90
7934;DHT22;4012;48.896;9.192;2023-04-24T14:52:53;14.50;99.90
7934;DHT22;4012;48.896;9.192;2023-04-24T14:55:20;14.70;99.90
7934;DHT22;4012;48.896;9.192;2023-04-24T14:57:45;14.80;99.90
7934;DHT22;4012;48.896;9.192;2023-04-24T15:00:12;14.80;99.90
7934;DHT22;4012;48.896;9.192;2023-04-24T15:02:38;14.70;99.90
7934;DHT22;4012;48.896;9.192;2023-04-24T15:05:07;14.70;99.90
7934;DHT22;4012;48.896;9.192;2023-04-24T15:07:33;14.30;99.90
7934;DHT22;4012;48.896;9.192;2023-04-24T15:10:00;14.50;99.90
7934;DHT22;4012;48.896;9.192;2023-04-24T15:12:26;14.40;99.90
7934;DHT22;4012;48.896;9.192;2023-04-24T15:14:54;14.50;99.90
7934;DHT22;4012;48.896;9.192;2023-04-24T15:17:20;14.50;99.90
7934;DHT22;4012;48.896;9.192;2023-04-24T15:19:45;14.10;99.90
7934;DHT22;4012;48.896;9.192;2023-04-24T15:22:11;13.80;99.90
7934;DHT22;4012;48.896;9.192;2023-04-24T15:24:36;13.90;99.90
7934;DHT22;4012;48.896;9.192;2023-04-24T15:27:02;13.90;99.90
7934;DHT22;4012;48.896;9.192;2023-04-24T15:29:29;14.00;99.90
7934;DHT22;4012;48.896;9.192;2023-04-24T15:31:54;14.10;99.90
7934;DHT22;4012;48.896;9.192;2023-04-24T15:34:20;14.10;99.90
7934;DHT22;4012;48.896;9.192;2023-04-24T15:36:46;14.00;99.90
7934;DHT22;4012;48.896;9.192;2023-04-24T15:39:11;14.10;99.90
7934;DHT22;4012;48.896;9.192;2023-04-24T15:41:37;14.40;99.90
7934;DHT22;4012;48.896;9.192;2023-04-24T15:44:03;14.50;99.90
7934;DHT22;4012;48.896;9.192;2023-04-24T15:46:29;14.40;99.90
7934;DHT22;4012;48.896;9.192;2023-04-24T15:48:54;14.00;99.90
7934;DHT22;4012;48.896;9.192;2023-04-24T15:51:20;13.90;99.90
7934;DHT22;4012;48.896;9.192;2023-04-24T15:53:46;13.80;99.90
7934;DHT22;4012;48.896;9.192;2023-04-24T15:56:12;13.80;99.90
7934;DHT22;4012;48.896;9.192;2023-04-24T15:58:38;13.80;99.90
7934;DHT22;4012;48.896;9.192;2023-04-24T16:01:03;13.80;99.90
7934;DHT22;4012;48.896;9.192;2023-04-24T16:03:29;13.70;99.90
7934;DHT22;4012;48.896;9.192;2023-04-24T16:05:55;13.70;99.90
7934;DHT22;4012;48.896;9.192;2023-04-24T16:08:20;13.70;99.90
7934;DHT22;4012;48.896;9.192;2023-04-24T16:10:46;13.70;99.90
7934;DHT22;4012;48.896;9.192;2023-04-24T16:13:13;13.60;99.90
7934;DHT22;4012;48.896;9.192;2023-04-24T16:15:39;13.50;99.90
7934;DHT22;4012;48.896;9.192;2023-04-24T16:18:05;13.40;99.90
7934;DHT22;4012;48.896;9.192;2023-04-24T16:20:31;13.20;99.90